Flight Track Log - Related Links

Times and Time Zones

All times are in EDT time to prevent confusion due to time zone crossing. See the IBE6464 flight status page for this flight to view local times or setup timezone preferences in your user account.

Time Position Orientation Groundspeed Altitude Reporting Facility
EDT Latitude Longitude Course Direction KTS MPH feet Rate Location/Type
Thu 10:06:15 PM -1.2663 -79.2783 44° Northeast  Level FlightAware Approximate
Thu 10:07:15 PM -1.1557 -79.2077 44° Northeast  Level FlightAware Approximate
Thu 10:08:15 PM -1.0492 -79.1375 44° Northeast  Level FlightAware Approximate
Thu 10:09:15 PM -0.9424 -79.0612 44° Northeast  Level FlightAware Approximate
Thu 10:10:15 PM -0.8429 -78.9755 44° Northeast  Level FlightAware Approximate
Thu 10:11:15 PM -0.7435 -78.8898 44° Northeast  Level FlightAware Approximate
Thu 10:12:15 PM -0.6215 -78.8421 44° Northeast  Level FlightAware Approximate
Thu 10:13:15 PM -0.5130 -78.7683 44° Northeast  Level FlightAware Approximate
Thu 10:14:15 PM -0.4143 -78.6818 44° Northeast  Level FlightAware Approximate
Thu 10:15:15 PM -0.3155 -78.5952 44° Northeast  Level FlightAware Approximate
Thu 10:16:15 PM -0.2168 -78.5087 44° Northeast  Level FlightAware Approximate
Thu 10:17:15 PM -0.1181 -78.4221 44° Northeast  Level FlightAware Approximate
Thu 10:18:15 PM -0.0194 -78.3356 44° Northeast  Level FlightAware Approximate
Thu 10:19:15 PM 0.0793 -78.2491 44° Northeast  Level FlightAware Approximate
Thu 10:20:15 PM 0.1781 -78.1625 44° Northeast  Level FlightAware Approximate
Thu 10:21:15 PM 0.2768 -78.0760 44° Northeast  Level FlightAware Approximate
Thu 10:22:15 PM 0.3755 -77.9894 44° Northeast  Level FlightAware Approximate
Thu 10:23:15 PM 0.4742 -77.9029 44° Northeast  Level FlightAware Approximate
Thu 10:24:15 PM 0.5729 -77.8163 44° Northeast  Level FlightAware Approximate
Thu 10:25:15 PM 0.6716 -77.7298 44° Northeast  Level FlightAware Approximate
Thu 10:26:15 PM 0.7690 -77.6417 44° Northeast  Level FlightAware Approximate
Thu 10:27:15 PM 0.8664 -77.5537 44° Northeast  Level FlightAware Approximate
Thu 10:28:15 PM 0.9638 -77.4657 44° Northeast  Level FlightAware Approximate
Thu 10:29:15 PM 1.0612 -77.3776 44° Northeast  Level FlightAware Approximate
Thu 10:30:15 PM 1.1586 -77.2896 44° Northeast  Level FlightAware Approximate
Thu 10:31:15 PM 1.2560 -77.2015 44° Northeast  Level FlightAware Approximate
Thu 10:32:15 PM 1.3534 -77.1134 44° Northeast  Level FlightAware Approximate
Thu 10:33:15 PM 1.4508 -77.0254 44° Northeast  Level FlightAware Approximate
Thu 10:34:15 PM 1.5481 -76.9373 44° Northeast  Level FlightAware Approximate
Thu 10:35:15 PM 1.6455 -76.8492 44° Northeast  Level FlightAware Approximate
Thu 10:36:15 PM 1.7429 -76.7611 44° Northeast  Level FlightAware Approximate
Thu 10:37:15 PM 1.8403 -76.6730 44° Northeast  Level FlightAware Approximate
Thu 10:38:15 PM 1.9376 -76.5849 44° Northeast  Level FlightAware Approximate
Thu 10:39:15 PM 2.0350 -76.4967 44° Northeast  Level FlightAware Approximate
Thu 10:40:15 PM 2.1323 -76.4086 44° Northeast  Level FlightAware Approximate
Thu 10:41:15 PM 2.2297 -76.3205 44° Northeast  Level FlightAware Approximate
Thu 10:42:15 PM 2.3270 -76.2323 44° Northeast  Level FlightAware Approximate
Thu 10:43:15 PM 2.4244 -76.1441 44° Northeast  Level FlightAware Approximate
Thu 10:44:15 PM 2.5217 -76.0560 44° Northeast  Level FlightAware Approximate
Thu 10:45:15 PM 2.6190 -75.9678 44° Northeast  Level FlightAware Approximate
Thu 10:46:15 PM 2.7164 -75.8796 44° Northeast  Level FlightAware Approximate
Thu 10:47:15 PM 2.8137 -75.7913 45° Northeast  Level FlightAware Approximate
Thu 10:48:15 PM 2.9110 -75.7031 45° Northeast  Level FlightAware Approximate
Thu 10:49:15 PM 3.0083 -75.6149 45° Northeast  Level FlightAware Approximate
Thu 10:50:15 PM 3.1056 -75.5266 45° Northeast  Level FlightAware Approximate
Thu 10:51:15 PM 3.2029 -75.4383 45° Northeast  Level FlightAware Approximate
Thu 10:52:15 PM 3.3001 -75.3500 45° Northeast  Level FlightAware Approximate
Thu 10:53:15 PM 3.3974 -75.2617 45° Northeast  Level FlightAware Approximate
Thu 10:54:15 PM 3.4947 -75.1733 45° Northeast  Level FlightAware Approximate
Thu 10:55:15 PM 3.5919 -75.0850 45° Northeast  Level FlightAware Approximate
Thu 10:56:15 PM 3.6892 -74.9966 45° Northeast  Level FlightAware Approximate
Thu 10:57:15 PM 3.7864 -74.9082 45° Northeast  Level FlightAware Approximate
Thu 10:58:15 PM 3.8836 -74.8198 45° Northeast  Level FlightAware Approximate
Thu 10:59:15 PM 3.9808 -74.7314 45° Northeast  Level FlightAware Approximate
Thu 11:00:15 PM 4.0781 -74.6429 45° Northeast  Level FlightAware Approximate
Thu 11:01:15 PM 4.1753 -74.5544 45° Northeast  Level FlightAware Approximate
Thu 11:02:15 PM 4.2724 -74.4659 45° Northeast  Level FlightAware Approximate
Thu 11:03:15 PM 4.3696 -74.3774 45° Northeast  Level FlightAware Approximate
Thu 11:04:15 PM 4.4668 -74.2889 45° Northeast  Level FlightAware Approximate
Thu 11:05:15 PM 4.5640 -74.2003 45° Northeast  Level FlightAware Approximate
Thu 11:06:15 PM 4.6919 -74.1917 45° Northeast  Level FlightAware Approximate
Thu 11:07:15 PM 4.7764 -74.0909 45° Northeast  Level FlightAware Approximate
Thu 11:08:15 PM 4.8608 -73.9899 45° Northeast  Level FlightAware Approximate
Thu 11:09:15 PM 4.9451 -73.8890 45° Northeast  Level FlightAware Approximate
Thu 11:10:15 PM 5.0295 -73.7880 45° Northeast  Level FlightAware Approximate
Thu 11:11:15 PM 5.1139 -73.6870 45° Northeast  Level FlightAware Approximate
Thu 11:12:15 PM 5.1982 -73.5860 45° Northeast  Level FlightAware Approximate
Thu 11:13:15 PM 5.2825 -73.4850 45° Northeast  Level FlightAware Approximate
Thu 11:14:15 PM 5.3668 -73.3839 45° Northeast  Level FlightAware Approximate
Thu 11:15:15 PM 5.4511 -73.2828 45° Northeast  Level FlightAware Approximate
Thu 11:16:15 PM 5.5354 -73.1817 45° Northeast  Level FlightAware Approximate
Thu 11:17:15 PM 5.6197 -73.0805 45° Northeast  Level FlightAware Approximate
Thu 11:18:15 PM 5.7039 -72.9793 45° Northeast  Level FlightAware Approximate
Thu 11:19:15 PM 5.7881 -72.8781 45° Northeast  Level FlightAware Approximate
Thu 11:20:15 PM 5.8723 -72.7769 45° Northeast  Level FlightAware Approximate
Thu 11:21:15 PM 5.9565 -72.6756 45° Northeast  Level FlightAware Approximate
Thu 11:22:15 PM 6.0407 -72.5743 45° Northeast  Level FlightAware Approximate
Thu 11:23:15 PM 6.1248 -72.4729 45° Northeast  Level FlightAware Approximate
Thu 11:24:15 PM 6.2090 -72.3716 45° Northeast  Level FlightAware Approximate
Thu 11:25:15 PM 6.2931 -72.2702 45° Northeast  Level FlightAware Approximate
Thu 11:26:15 PM 6.3772 -72.1687 45° Northeast  Level FlightAware Approximate
Thu 11:27:15 PM 6.4612 -72.0673 45° Northeast  Level FlightAware Approximate
Thu 11:28:15 PM 6.5453 -71.9658 45° Northeast  Level FlightAware Approximate
Thu 11:29:15 PM 6.6293 -71.8642 44° Northeast  Level FlightAware Approximate
Thu 11:30:15 PM 6.7133 -71.7626 44° Northeast  Level FlightAware Approximate
Thu 11:31:15 PM 6.7973 -71.6610 44° Northeast  Level FlightAware Approximate
Thu 11:32:15 PM 6.8813 -71.5594 44° Northeast  Level FlightAware Approximate
Thu 11:33:15 PM 6.9652 -71.4577 44° Northeast  Level FlightAware Approximate
Thu 11:34:15 PM 7.0492 -71.3560 44° Northeast  Level FlightAware Approximate
Thu 11:35:15 PM 7.1331 -71.2542 44° Northeast  Level FlightAware Approximate
Thu 11:36:15 PM 7.2169 -71.1525 44° Northeast  Level FlightAware Approximate
Thu 11:37:15 PM 7.3008 -71.0506 44° Northeast  Level FlightAware Approximate
Thu 11:38:15 PM 7.3846 -70.9488 44° Northeast  Level FlightAware Approximate
Thu 11:39:15 PM 7.4684 -70.8469 44° Northeast  Level FlightAware Approximate
Thu 11:40:15 PM 7.5522 -70.7449 44° Northeast  Level FlightAware Approximate
Thu 11:41:15 PM 7.6360 -70.6429 44° Northeast  Level FlightAware Approximate
Thu 11:42:15 PM 7.7197 -70.5409 44° Northeast  Level FlightAware Approximate
Thu 11:43:15 PM 7.8035 -70.4389 44° Northeast  Level FlightAware Approximate
Thu 11:44:15 PM 7.8871 -70.3367 44° Northeast  Level FlightAware Approximate
Thu 11:45:15 PM 7.9708 -70.2346 44° Northeast  Level FlightAware Approximate
Thu 11:46:15 PM 8.0545 -70.1324 44° Northeast  Level FlightAware Approximate
Thu 11:47:15 PM 8.1381 -70.0302 44° Northeast  Level FlightAware Approximate
Thu 11:48:15 PM 8.2290 -69.9345 44° Northeast  Level FlightAware Approximate
Thu 11:49:15 PM 8.3199 -69.8388 44° Northeast  Level FlightAware Approximate
Thu 11:50:15 PM 8.4108 -69.7431 44° Northeast  Level FlightAware Approximate
Thu 11:51:15 PM 8.5017 -69.6473 44° Northeast  Level FlightAware Approximate
Thu 11:52:15 PM 8.5926 -69.5515 44° Northeast  Level FlightAware Approximate
Thu 11:53:15 PM 8.6834 -69.4556 44° Northeast  Level FlightAware Approximate
Thu 11:54:15 PM 8.7742 -69.3597 44° Northeast  Level FlightAware Approximate
Thu 11:55:15 PM 8.8650 -69.2637 44° Northeast  Level FlightAware Approximate
Thu 11:56:15 PM 8.9558 -69.1677 44° Northeast  Level FlightAware Approximate
Thu 11:57:15 PM 9.0465 -69.0716 44° Northeast  Level FlightAware Approximate
Thu 11:58:15 PM 9.1372 -68.9755 44° Northeast  Level FlightAware Approximate
Thu 11:59:15 PM 9.2279 -68.8793 44° Northeast  Level FlightAware Approximate
Fri 12:00:15 AM 9.3185 -68.7831 44° Northeast  Level FlightAware Approximate
Fri 12:01:15 AM 9.4092 -68.6869 44° Northeast  Level FlightAware Approximate
Fri 12:02:15 AM 9.4998 -68.5906 44° Northeast  Level FlightAware Approximate
Fri 12:03:15 AM 9.5903 -68.4942 44° Northeast  Level FlightAware Approximate
Fri 12:04:15 AM 9.6809 -68.3978 44° Northeast  Level FlightAware Approximate
Fri 12:05:15 AM 9.7714 -68.3013 44° Northeast  Level FlightAware Approximate
Fri 12:06:15 AM 9.8619 -68.2048 44° Northeast  Level FlightAware Approximate
Fri 12:07:15 AM 9.9524 -68.1082 44° Northeast  Level FlightAware Approximate
Fri 12:08:15 AM 10.0428 -68.0116 43° Northeast  Level FlightAware Approximate
Fri 12:09:15 AM 10.1332 -67.9149 43° Northeast  Level FlightAware Approximate
Fri 12:10:15 AM 10.2236 -67.8182 43° Northeast  Level FlightAware Approximate
Fri 12:11:15 AM 10.3140 -67.7214 43° Northeast  Level FlightAware Approximate
Fri 12:12:15 AM 10.4043 -67.6245 43° Northeast  Level FlightAware Approximate
Fri 12:13:15 AM 10.4946 -67.5276 43° Northeast  Level FlightAware Approximate
Fri 12:14:15 AM 10.5849 -67.4307 43° Northeast  Level FlightAware Approximate
Fri 12:15:15 AM 10.6751 -67.3337 43° Northeast  Level FlightAware Approximate
Fri 12:16:15 AM 10.7653 -67.2366 43° Northeast  Level FlightAware Approximate
Fri 12:17:15 AM 10.8587 -67.1426 43° Northeast  Level FlightAware Approximate
Fri 12:18:15 AM 10.9520 -67.0485 43° Northeast  Level FlightAware Approximate
Fri 12:19:15 AM 11.0452 -66.9544 43° Northeast  Level FlightAware Approximate
Fri 12:20:15 AM 11.1385 -66.8602 43° Northeast  Level FlightAware Approximate
Fri 12:21:15 AM 11.2317 -66.7660 43° Northeast  Level FlightAware Approximate
Fri 12:22:15 AM 11.3249 -66.6717 43° Northeast  Level FlightAware Approximate
Fri 12:23:15 AM 11.4180 -66.5773 43° Northeast  Level FlightAware Approximate
Fri 12:24:15 AM 11.5111 -66.4829 43° Northeast  Level FlightAware Approximate
Fri 12:25:15 AM 11.6042 -66.3884 43° Northeast  Level FlightAware Approximate
Fri 12:26:15 AM 11.6973 -66.2939 43° Northeast  Level FlightAware Approximate
Fri 12:27:15 AM 11.7903 -66.1993 43° Northeast  Level FlightAware Approximate
Fri 12:28:15 AM 11.8833 -66.1046 43° Northeast  Level FlightAware Approximate
Fri 12:29:15 AM 11.9763 -66.0099 43° Northeast  Level FlightAware Approximate
Fri 12:30:15 AM 12.0692 -65.9150 43° Northeast  Level FlightAware Approximate
Fri 12:31:15 AM 12.1621 -65.8202 43° Northeast  Level FlightAware Approximate
Fri 12:32:15 AM 12.2550 -65.7253 43° Northeast  Level FlightAware Approximate
Fri 12:33:15 AM 12.3478 -65.6302 43° Northeast  Level FlightAware Approximate
Fri 12:34:15 AM 12.4406 -65.5352 43° Northeast  Level FlightAware Approximate
Fri 12:35:15 AM 12.5334 -65.4400 43° Northeast  Level FlightAware Approximate
Fri 12:36:15 AM 12.6262 -65.3448 43° Northeast  Level FlightAware Approximate
Fri 12:37:15 AM 12.7189 -65.2496 43° Northeast  Level FlightAware Approximate
Fri 12:38:15 AM 12.8115 -65.1542 43° Northeast  Level FlightAware Approximate
Fri 12:39:15 AM 12.9042 -65.0588 43° Northeast  Level FlightAware Approximate
Fri 12:40:15 AM 12.9968 -64.9633 43° Northeast  Level FlightAware Approximate
Fri 12:41:15 AM 13.0893 -64.8678 43° Northeast  Level FlightAware Approximate
Fri 12:42:15 AM 13.1819 -64.7721 43° Northeast  Level FlightAware Approximate
Fri 12:43:15 AM 13.2744 -64.6764 43° Northeast  Level FlightAware Approximate
Fri 12:44:15 AM 13.3668 -64.5806 43° Northeast  Level FlightAware Approximate
Fri 12:45:15 AM 13.4593 -64.4848 43° Northeast  Level FlightAware Approximate
Fri 12:46:15 AM 13.5517 -64.3889 43° Northeast  Level FlightAware Approximate
Fri 12:47:15 AM 13.6440 -64.2929 43° Northeast  Level FlightAware Approximate
Fri 12:48:15 AM 13.7363 -64.1968 43° Northeast  Level FlightAware Approximate
Fri 12:49:15 AM 13.8146 -64.0882 43° Northeast  Level FlightAware Approximate
Fri 12:50:15 AM 13.8928 -63.9796 43° Northeast  Level FlightAware Approximate
Fri 12:51:15 AM 13.9709 -63.8710 42° Northeast  Level FlightAware Approximate
Fri 12:52:15 AM 14.0490 -63.7622 42° Northeast  Level FlightAware Approximate
Fri 12:53:15 AM 14.1271 -63.6534 42° Northeast  Level FlightAware Approximate
Fri 12:54:15 AM 14.2051 -63.5445 42° Northeast  Level FlightAware Approximate
Fri 12:55:15 AM 14.2830 -63.4355 41° Northeast  Level FlightAware Approximate
Fri 12:56:15 AM 14.3610 -63.3264 41° Northeast  Level FlightAware Approximate
Fri 12:57:15 AM 14.4408 -63.2146 41° Northeast  Level FlightAware Approximate
Fri 12:58:15 AM 14.5205 -63.1027 40° Northeast  Level FlightAware Approximate
Fri 12:59:15 AM 14.6002 -62.9907 40° Northeast  Level FlightAware Approximate
Fri 01:00:15 AM 14.6798 -62.8786 39° Northeast  Level FlightAware Approximate
Fri 01:01:15 AM 14.7594 -62.7664 39° Northeast  Level FlightAware Approximate
Fri 01:02:15 AM 14.8389 -62.6541 39° Northeast  Level FlightAware Approximate
Fri 01:03:15 AM 14.9184 -62.5418 38° Northeast  Level FlightAware Approximate
Fri 01:04:15 AM 14.9978 -62.4294 38° Northeast  Level FlightAware Approximate
Fri 01:05:15 AM 15.0771 -62.3169 37° Northeast  Level FlightAware Approximate
Fri 01:06:15 AM 15.1564 -62.2043 36° Northeast  Level FlightAware Approximate
Fri 01:07:15 AM 15.2357 -62.0916 36° Northeast  Level FlightAware Approximate
Fri 01:08:15 AM 15.3149 -61.9789 35° Northeast  Level FlightAware Approximate
Fri 01:09:15 AM 15.3940 -61.8661 34° Northeast  Level FlightAware Approximate
Fri 01:10:15 AM 15.4731 -61.7531 33° Northeast  Level FlightAware Approximate
Fri 01:11:15 AM 15.5521 -61.6401 32° Northeast  Level FlightAware Approximate
Fri 01:12:15 AM 15.6311 -61.5270 31° Northeast  Level FlightAware Approximate
Fri 01:13:15 AM 15.7100 -61.4138 30° Northeast  Level FlightAware Approximate
Fri 01:14:15 AM 15.7888 -61.3006 29° Northeast  Level FlightAware Approximate
Fri 01:15:15 AM 15.8676 -61.1872 28° Northeast  Level FlightAware Approximate
Fri 01:16:15 AM 15.9464 -61.0738 26° Northeast  Level FlightAware Approximate
Fri 01:17:15 AM 16.0250 -60.9602 25° Northeast  Level FlightAware Approximate
Fri 01:18:15 AM 16.1036 -60.8466 23° Northeast  Level FlightAware Approximate
Fri 01:19:15 AM 16.1822 -60.7329 21° North  Level FlightAware Approximate
Fri 01:20:15 AM 16.2607 -60.6191 18° North  Level FlightAware Approximate
Fri 01:21:15 AM 16.3391 -60.5052 16° North  Level FlightAware Approximate
Fri 01:22:15 AM 16.4175 -60.3912 13° North  Level FlightAware Approximate
Fri 01:23:15 AM 16.4958 -60.2771 North  Level FlightAware Approximate
Fri 01:24:15 AM 16.5740 -60.1629 North  Level FlightAware Approximate
Fri 01:25:15 AM 16.6522 -60.0486 North  Level FlightAware Approximate
Fri 01:26:15 AM 16.7303 -59.9343 356° North  Level FlightAware Approximate
Fri 01:27:15 AM 16.8119 -59.8226 350° North  Level FlightAware Approximate
Fri 01:28:15 AM 16.8935 -59.7107 344° North  Level FlightAware Approximate
Fri 01:29:15 AM 16.9749 -59.5988 337° Northwest  Level FlightAware Approximate
Fri 01:30:15 AM 17.0564 -59.4868 330° Northwest  Level FlightAware Approximate
Fri 01:31:15 AM 17.1377 -59.3747 322° Northwest  Level FlightAware Approximate
Fri 01:32:15 AM 17.2190 -59.2625 315° West  Level FlightAware Approximate
Fri 01:33:15 AM 17.3002 -59.1502 308° West  Level FlightAware Approximate
Fri 01:34:15 AM 17.3814 -59.0378 301° West  Level FlightAware Approximate
Fri 01:35:15 AM 17.4625 -58.9252 295° West  Level FlightAware Approximate
Fri 01:36:15 AM 17.5436 -58.8126 289° West  Level FlightAware Approximate
Fri 01:37:15 AM 17.6245 -58.6999 285° West  Level FlightAware Approximate
Fri 01:38:15 AM 17.7055 -58.5871 280° West  Level FlightAware Approximate
Fri 01:38:55 AM 17.9500 -60.0333 32° Northeast 382 440 33,000  Level New York Oceanic (ODAPS)
Fri 01:39:13 AM 18.0000 -60.0000 360° North 286 329 33,000  Level New York Oceanic (ODAPS)
Fri 01:39:28 AM 18.0000 -60.0000 59° Northeast 516 594 33,000  Level New York Oceanic (ODAPS)
Fri 01:42:32 AM 18.2333 -59.5833 61° Northeast 512 589 33,000 248 Level New York Oceanic (ODAPS)
Fri 01:44:42 AM 18.3833 -59.3000 61° Northeast 513 590 34,300 490 Climbing New York Oceanic (ODAPS)
Fri 01:46:37 AM 18.5167 -59.0500 61° Northeast 517 595 35,000 38 Climbing New York Oceanic (ODAPS)
Fri 02:02:53 AM 19.6500 -56.8833 61° Northeast 515 593 35,000  Level New York Oceanic (ODAPS)
Fri 02:23:11 AM 21.0333 -54.1500 62° Northeast 503 579 35,000  Level New York Oceanic (ODAPS)
Fri 02:43:21 AM 22.3333 -51.4500 64° Northeast 495 570 35,000  Level New York Oceanic (ODAPS)
Fri 02:47:49 AM 22.6000 -50.8667 63° Northeast 504 580 35,000  Level New York Oceanic (ODAPS)
Fri 02:54:26 AM 23.0000 -50.0000 54° Northeast 507 583 35,000  Level New York Oceanic (ODAPS)
Fri 03:03:43 AM 23.7667 -48.8333 55° Northeast 509 586 35,000  Level New York Oceanic (ODAPS)
Fri 03:23:57 AM 25.3833 -46.2667 56° Northeast 511 588 35,000  Level New York Oceanic (ODAPS)
Fri 03:44:10 AM 26.9833 -43.6000 57° Northeast 516 594 35,000  Level New York Oceanic (ODAPS)
Fri 04:04:39 AM 28.5500 -40.8333 59° Northeast 513 590 35,000  Level New York Oceanic (ODAPS)
Fri 04:12:15 AM 29.1422 -39.6870 63° Northeast 513 590 35,000  Level FlightAware Transoceanic
Fri 04:13:15 AM 29.2051 -39.5477 63° Northeast 513 590 35,000  Level FlightAware Transoceanic
Fri 04:14:15 AM 29.2679 -39.4081 63° Northeast 513 590 35,000  Level FlightAware Transoceanic
Fri 04:15:15 AM 29.3306 -39.2685 63° Northeast 513 590 35,000  Level FlightAware Transoceanic
Fri 04:16:15 AM 29.3931 -39.1286 63° Northeast 513 590 35,000  Level FlightAware Transoceanic
Fri 04:17:15 AM 29.4554 -38.9885 63° Northeast 513 590 35,000  Level FlightAware Transoceanic
Fri 04:18:15 AM 29.5177 -38.8483 63° Northeast 513 590 35,000  Level FlightAware Transoceanic
Fri 04:19:15 AM 29.5797 -38.7079 63° Northeast 513 590 35,000  Level FlightAware Transoceanic
Fri 04:20:15 AM 29.6416 -38.5673 63° Northeast 513 590 35,000  Level FlightAware Transoceanic
Fri 04:21:15 AM 29.7034 -38.4266 63° Northeast 513 590 35,000  Level FlightAware Transoceanic
Fri 04:22:15 AM 29.7650 -38.2857 63° Northeast 513 590 35,000  Level FlightAware Transoceanic
Fri 04:23:15 AM 29.8265 -38.1446 63° Northeast 513 590 35,000  Level FlightAware Transoceanic
Fri 04:24:15 AM 29.8878 -38.0033 63° Northeast 513 590 35,000  Level FlightAware Transoceanic
Fri 04:25:15 AM 29.9490 -37.8619 64° Northeast 513 590 35,000  Level FlightAware Transoceanic
Fri 04:26:15 AM 30.0100 -37.7203 64° Northeast 513 590 35,000  Level FlightAware Transoceanic
Fri 04:27:15 AM 30.0709 -37.5785 64° Northeast 513 590 35,000  Level FlightAware Transoceanic
Fri 04:28:15 AM 30.1316 -37.4366 64° Northeast 513 590 35,000  Level FlightAware Transoceanic
Fri 04:29:15 AM 30.1922 -37.2944 64° Northeast 513 590 35,000  Level FlightAware Transoceanic
Fri 04:30:15 AM 30.2526 -37.1521 64° Northeast 513 590 35,000  Level FlightAware Transoceanic
Fri 04:31:15 AM 30.3129 -37.0096 64° Northeast 513 590 35,000  Level FlightAware Transoceanic
Fri 04:32:15 AM 30.3730 -36.8670 64° Northeast 513 590 35,000  Level FlightAware Transoceanic
Fri 04:33:15 AM 30.4329 -36.7242 64° Northeast 513 590 35,000  Level FlightAware Transoceanic
Fri 04:34:15 AM 30.4927 -36.5812 64° Northeast 513 590 35,000  Level FlightAware Transoceanic
Fri 04:35:15 AM 30.5523 -36.4380 64° Northeast 513 590 35,000  Level FlightAware Transoceanic
Fri 04:36:15 AM 30.6118 -36.2946 64° Northeast 513 590 35,000  Level FlightAware Transoceanic
Fri 04:37:15 AM 30.6712 -36.1511 64° Northeast 513 590 35,000  Level FlightAware Transoceanic
Fri 04:38:15 AM 30.7303 -36.0074 64° Northeast 513 590 35,000  Level FlightAware Transoceanic
Fri 04:39:15 AM 30.7893 -35.8635 65° Northeast 513 590 35,000  Level FlightAware Transoceanic
Fri 04:40:15 AM 30.8482 -35.7194 65° Northeast 513 590 35,000  Level FlightAware Transoceanic
Fri 04:41:15 AM 30.9069 -35.5752 65° Northeast 513 590 35,000  Level FlightAware Transoceanic
Fri 04:42:15 AM 30.9654 -35.4308 65° Northeast 513 590 35,000  Level FlightAware Transoceanic
Fri 04:43:15 AM 31.0238 -35.2862 65° Northeast 513 590 35,000  Level FlightAware Transoceanic
Fri 04:44:15 AM 31.0819 -35.1414 65° Northeast 513 590 35,000  Level FlightAware Transoceanic
Fri 04:45:15 AM 31.1400 -34.9964 65° Northeast 513 590 35,000  Level FlightAware Transoceanic
Fri 04:46:15 AM 31.1979 -34.8513 65° Northeast 513 590 35,000  Level FlightAware Transoceanic
Fri 04:47:15 AM 31.2556 -34.7060 65° Northeast 513 590 35,000  Level FlightAware Transoceanic
Fri 04:48:15 AM 31.3132 -34.5606 65° Northeast 513 590 35,000  Level FlightAware Transoceanic
Fri 04:49:15 AM 31.3705 -34.4149 65° Northeast 513 590 35,000  Level FlightAware Transoceanic
Fri 04:50:15 AM 31.4278 -34.2691 65° Northeast 513 590 35,000  Level FlightAware Transoceanic
Fri 04:51:15 AM 31.4848 -34.1230 65° Northeast 513 590 35,000  Level FlightAware Transoceanic
Fri 04:52:15 AM 31.5417 -33.9768 65° Northeast 513 590 35,000  Level FlightAware Transoceanic
Fri 04:53:15 AM 31.5984 -33.8305 66° East 513 590 35,000  Level FlightAware Transoceanic
Fri 04:54:15 AM 31.6550 -33.6839 66° East 513 590 35,000  Level FlightAware Transoceanic
Fri 04:55:15 AM 31.7114 -33.5372 66° East 513 590 35,000  Level FlightAware Transoceanic
Fri 04:56:15 AM 31.7676 -33.3903 66° East 513 590 35,000  Level FlightAware Transoceanic
Fri 04:57:15 AM 31.8237 -33.2432 66° East 513 590 35,000  Level FlightAware Transoceanic
Fri 04:58:15 AM 31.8796 -33.0960 66° East 513 590 35,000  Level FlightAware Transoceanic
Fri 04:59:15 AM 31.9353 -32.9485 66° East 513 590 35,000  Level FlightAware Transoceanic
Fri 05:00:15 AM 31.9908 -32.8009 66° East 513 590 35,000  Level FlightAware Transoceanic
Fri 05:01:15 AM 32.0462 -32.6531 66° East 513 590 35,000  Level FlightAware Transoceanic
Fri 05:02:15 AM 32.1014 -32.5051 66° East 513 590 35,000  Level FlightAware Transoceanic
Fri 05:03:15 AM 32.1564 -32.3570 66° East 513 590 35,000  Level FlightAware Transoceanic
Fri 05:04:15 AM 32.2113 -32.2087 66° East 513 590 35,000  Level FlightAware Transoceanic
Fri 05:05:15 AM 32.2660 -32.0602 67° East 513 590 35,000  Level FlightAware Transoceanic
Fri 05:06:15 AM 32.3205 -31.9115 67° East 513 590 35,000  Level FlightAware Transoceanic
Fri 05:07:15 AM 32.3748 -31.7626 67° East 513 590 35,000  Level FlightAware Transoceanic
Fri 05:08:15 AM 32.4290 -31.6136 67° East 513 590 35,000  Level FlightAware Transoceanic
Fri 05:09:15 AM 32.4830 -31.4643 67° East 513 590 35,000  Level FlightAware Transoceanic
Fri 05:10:15 AM 32.5368 -31.3149 67° East 513 590 35,000  Level FlightAware Transoceanic
Fri 05:11:15 AM 32.5904 -31.1653 67° East 513 590 35,000  Level FlightAware Transoceanic
Fri 05:12:15 AM 32.6439 -31.0156 67° East 513 590 35,000  Level FlightAware Transoceanic
Fri 05:13:15 AM 32.6971 -30.8656 67° East 513 590 35,000  Level FlightAware Transoceanic
Fri 05:14:15 AM 32.7502 -30.7155 67° East 513 590 35,000  Level FlightAware Transoceanic
Fri 05:15:15 AM 32.8032 -30.5652 67° East 513 590 35,000  Level FlightAware Transoceanic
Fri 05:16:15 AM 32.8559 -30.4147 67° East 513 590 35,000  Level FlightAware Transoceanic
Fri 05:17:15 AM 32.9085 -30.2641 67° East 513 590 35,000  Level FlightAware Transoceanic
Fri 05:18:15 AM 32.9608 -30.1132 68° East 513 590 35,000  Level FlightAware Transoceanic
Fri 05:19:15 AM 33.0102 -29.9704 67° East  Level FlightAware Approximate
Fri 05:20:15 AM 33.0602 -29.8279 67° East  Level FlightAware Approximate
Fri 05:21:15 AM 33.1101 -29.6853 67° East  Level FlightAware Approximate
Fri 05:22:15 AM 33.1599 -29.5424 67° East  Level FlightAware Approximate
Fri 05:23:15 AM 33.2094 -29.3994 68° East  Level FlightAware Approximate
Fri 05:24:15 AM 33.2589 -29.2563 68° East  Level FlightAware Approximate
Fri 05:25:15 AM 33.3081 -29.1130 68° East  Level FlightAware Approximate
Fri 05:26:15 AM 33.3572 -28.9695 68° East  Level FlightAware Approximate
Fri 05:27:15 AM 33.4061 -28.8259 68° East  Level FlightAware Approximate
Fri 05:28:15 AM 33.4549 -28.6821 68° East  Level FlightAware Approximate
Fri 05:29:15 AM 33.5035 -28.5381 68° East  Level FlightAware Approximate
Fri 05:30:15 AM 33.5519 -28.3940 68° East  Level FlightAware Approximate
Fri 05:31:15 AM 33.6001 -28.2497 68° East  Level FlightAware Approximate
Fri 05:32:15 AM 33.6482 -28.1053 75° East  Level FlightAware Approximate
Fri 05:33:15 AM 33.6810 -27.9569 64° Northeast  Level FlightAware Approximate
Fri 05:34:15 AM 33.7379 -27.8169 64° Northeast  Level FlightAware Approximate
Fri 05:35:15 AM 33.7945 -27.6768 64° Northeast  Level FlightAware Approximate
Fri 05:36:15 AM 33.8510 -27.5365 64° Northeast  Level FlightAware Approximate
Fri 05:37:15 AM 33.9074 -27.3960 64° Northeast  Level FlightAware Approximate
Fri 05:38:15 AM 33.9636 -27.2553 64° Northeast  Level FlightAware Approximate
Fri 05:39:15 AM 34.0196 -27.1145 64° Northeast  Level FlightAware Approximate
Fri 05:40:15 AM 34.0755 -26.9734 64° Northeast  Level FlightAware Approximate
Fri 05:41:15 AM 34.1311 -26.8322 65° Northeast  Level FlightAware Approximate
Fri 05:42:15 AM 34.1867 -26.6908 65° Northeast  Level FlightAware Approximate
Fri 05:43:15 AM 34.2421 -26.5492 65° Northeast  Level FlightAware Approximate
Fri 05:44:15 AM 34.2973 -26.4074 65° Northeast  Level FlightAware Approximate
Fri 05:45:15 AM 34.3523 -26.2654 65° Northeast  Level FlightAware Approximate
Fri 05:46:15 AM 34.4072 -26.1232 65° Northeast  Level FlightAware Approximate
Fri 05:47:15 AM 34.4619 -25.9809 65° Northeast  Level FlightAware Approximate
Fri 05:48:15 AM 34.5165 -25.8383 65° Northeast  Level FlightAware Approximate
Fri 05:49:15 AM 34.5709 -25.6956 65° Northeast  Level FlightAware Approximate
Fri 05:50:15 AM 34.6251 -25.5527 65° Northeast  Level FlightAware Approximate
Fri 05:51:15 AM 34.6792 -25.4096 65° Northeast  Level FlightAware Approximate
Fri 05:52:15 AM 34.7331 -25.2663 65° Northeast  Level FlightAware Approximate
Fri 05:53:15 AM 34.7868 -25.1228 66° East  Level FlightAware Approximate
Fri 05:54:15 AM 34.8404 -24.9792 66° East  Level FlightAware Approximate
Fri 05:55:15 AM 34.8938 -24.8353 66° East  Level FlightAware Approximate
Fri 05:56:15 AM 34.9470 -24.6913 66° East  Level FlightAware Approximate
Fri 05:57:15 AM 35.0000 -24.5471 66° East  Level FlightAware Approximate
Fri 05:58:15 AM 35.0529 -24.4027 66° East  Level FlightAware Approximate
Fri 05:59:15 AM 35.1056 -24.2581 66° East  Level FlightAware Approximate
Fri 06:00:15 AM 35.1581 -24.1133 66° East  Level FlightAware Approximate
Fri 06:01:15 AM 35.2105 -23.9683 66° East  Level FlightAware Approximate
Fri 06:02:15 AM 35.2627 -23.8232 66° East  Level FlightAware Approximate
Fri 06:03:15 AM 35.3147 -23.6779 66° East  Level FlightAware Approximate
Fri 06:04:15 AM 35.3665 -23.5323 66° East  Level FlightAware Approximate
Fri 06:05:15 AM 35.4182 -23.3866 67° East  Level FlightAware Approximate
Fri 06:06:15 AM 35.4697 -23.2407 67° East  Level FlightAware Approximate
Fri 06:07:15 AM 35.5210 -23.0946 67° East  Level FlightAware Approximate
Fri 06:08:15 AM 35.5721 -22.9484 67° East  Level FlightAware Approximate
Fri 06:09:15 AM 35.6231 -22.8019 67° East  Level FlightAware Approximate
Fri 06:10:15 AM 35.6739 -22.6553 67° East  Level FlightAware Approximate
Fri 06:11:15 AM 35.7245 -22.5084 67° East  Level FlightAware Approximate
Fri 06:12:15 AM 35.7749 -22.3614 67° East  Level FlightAware Approximate
Fri 06:13:15 AM 35.8252 -22.2142 67° East  Level FlightAware Approximate
Fri 06:14:15 AM 35.8752 -22.0668 67° East  Level FlightAware Approximate
Fri 06:15:15 AM 35.9251 -21.9193 67° East  Level FlightAware Approximate
Fri 06:16:15 AM 35.9748 -21.7715 67° East  Level FlightAware Approximate
Fri 06:17:15 AM 36.0244 -21.6235 68° East  Level FlightAware Approximate
Fri 06:18:15 AM 36.0737 -21.4754 68° East  Level FlightAware Approximate
Fri 06:19:15 AM 36.1229 -21.3271 68° East  Level FlightAware Approximate
Fri 06:20:15 AM 36.1718 -21.1786 68° East  Level FlightAware Approximate
Fri 06:21:15 AM 36.2206 -21.0299 68° East  Level FlightAware Approximate
Fri 06:22:15 AM 36.2692 -20.8810 68° East  Level FlightAware Approximate
Fri 06:23:15 AM 36.3177 -20.7320 68° East  Level FlightAware Approximate
Fri 06:24:15 AM 36.3659 -20.5827 68° East  Level FlightAware Approximate
Fri 06:25:15 AM 36.4149 -20.4338 68° East  Level FlightAware Approximate
Fri 06:26:15 AM 36.4638 -20.2846 68° East  Level FlightAware Approximate
Fri 06:27:15 AM 36.5124 -20.1353 68° East  Level FlightAware Approximate
Fri 06:28:15 AM 36.5609 -19.9858 68° East  Level FlightAware Approximate
Fri 06:29:15 AM 36.6092 -19.8361 68° East  Level FlightAware Approximate
Fri 06:30:15 AM 36.6573 -19.6862 68° East  Level FlightAware Approximate
Fri 06:31:15 AM 36.7052 -19.5362 68° East  Level FlightAware Approximate
Fri 06:32:15 AM 36.7529 -19.3859 68° East  Level FlightAware Approximate
Fri 06:33:15 AM 36.8004 -19.2355 69° East  Level FlightAware Approximate
Fri 06:34:15 AM 36.8478 -19.0848 69° East  Level FlightAware Approximate
Fri 06:35:15 AM 36.8949 -18.9340 69° East  Level FlightAware Approximate
Fri 06:36:15 AM 36.9419 -18.7830 69° East  Level FlightAware Approximate
Fri 06:37:15 AM 36.9887 -18.6318 69° East  Level FlightAware Approximate
Fri 06:38:15 AM 37.0353 -18.4805 69° East  Level FlightAware Approximate
Fri 06:39:15 AM 37.0816 -18.3289 69° East  Level FlightAware Approximate
Fri 06:40:15 AM 37.1278 -18.1772 69° East  Level FlightAware Approximate
Fri 06:41:15 AM 37.1738 -18.0252 69° East  Level FlightAware Approximate
Fri 06:42:15 AM 37.2196 -17.8731 69° East  Level FlightAware Approximate
Fri 06:43:15 AM 37.2652 -17.7208 69° East  Level FlightAware Approximate
Fri 06:44:15 AM 37.3106 -17.5684 70° East  Level FlightAware Approximate
Fri 06:45:15 AM 37.3559 -17.4157 70° East  Level FlightAware Approximate
Fri 06:46:15 AM 37.4009 -17.2628 70° East  Level FlightAware Approximate
Fri 06:47:15 AM 37.4457 -17.1098 70° East  Level FlightAware Approximate
Fri 06:48:15 AM 37.4903 -16.9566 70° East  Level FlightAware Approximate
Fri 06:49:15 AM 37.5348 -16.8032 70° East  Level FlightAware Approximate
Fri 06:50:15 AM 37.5790 -16.6496 70° East  Level FlightAware Approximate
Fri 06:51:15 AM 37.6230 -16.4959 70° East  Level FlightAware Approximate
Fri 06:52:15 AM 37.6669 -16.3419 70° East  Level FlightAware Approximate
Fri 06:53:15 AM 37.7105 -16.1878 70° East  Level FlightAware Approximate
Fri 06:54:15 AM 37.7539 -16.0335 70° East  Level FlightAware Approximate
Fri 06:55:15 AM 37.7972 -15.8790 71° East  Level FlightAware Approximate
Fri 06:56:15 AM 37.8402 -15.7243 71° East  Level FlightAware Approximate
Fri 06:57:15 AM 37.8830 -15.5695 71° East  Level FlightAware Approximate
Fri 06:58:15 AM 37.9256 -15.4145 71° East  Level FlightAware Approximate
Fri 06:59:15 AM 37.9681 -15.2593 71° East  Level FlightAware Approximate
Fri 07:00:15 AM 38.0103 -15.1039 71° East  Level FlightAware Approximate
Fri 07:01:15 AM 38.0523 -14.9483 71° East  Level FlightAware Approximate
Fri 07:02:15 AM 38.0941 -14.7926 71° East  Level FlightAware Approximate
Fri 07:03:15 AM 38.1357 -14.6367 71° East  Level FlightAware Approximate
Fri 07:04:15 AM 38.1771 -14.4806 71° East  Level FlightAware Approximate
Fri 07:05:15 AM 38.2183 -14.3243 72° East  Level FlightAware Approximate
Fri 07:06:15 AM 38.2592 -14.1678 72° East  Level FlightAware Approximate
Fri 07:07:15 AM 38.3000 -14.0112 72° East  Level FlightAware Approximate
Fri 07:08:15 AM 38.3406 -13.8544 72° East  Level FlightAware Approximate
Fri 07:09:15 AM 38.3809 -13.6974 72° East  Level FlightAware Approximate
Fri 07:10:15 AM 38.4211 -13.5403 72° East  Level FlightAware Approximate
Fri 07:11:15 AM 38.4610 -13.3829 72° East  Level FlightAware Approximate
Fri 07:12:15 AM 38.5007 -13.2254 72° East  Level FlightAware Approximate
Fri 07:13:15 AM 38.5402 -13.0678 72° East  Level FlightAware Approximate
Fri 07:14:15 AM 38.5795 -12.9099 72° East  Level FlightAware Approximate
Fri 07:15:15 AM 38.6186 -12.7519 72° East  Level FlightAware Approximate
Fri 07:16:15 AM 38.6575 -12.5937 73° East  Level FlightAware Approximate
Fri 07:17:15 AM 38.6961 -12.4354 73° East  Level FlightAware Approximate
Fri 07:18:15 AM 38.7346 -12.2768 73° East  Level FlightAware Approximate
Fri 07:19:15 AM 38.7728 -12.1181 73° East  Level FlightAware Approximate
Fri 07:20:15 AM 38.8108 -11.9593 73° East  Level FlightAware Approximate
Fri 07:21:15 AM 38.8486 -11.8002 73° East  Level FlightAware Approximate
Fri 07:22:15 AM 38.8862 -11.6410 73° East  Level FlightAware Approximate
Fri 07:23:15 AM 38.9236 -11.4816 73° East  Level FlightAware Approximate
Fri 07:24:15 AM 38.9608 -11.3221 73° East  Level FlightAware Approximate
Fri 07:25:15 AM 38.9977 -11.1624 73° East  Level FlightAware Approximate
Fri 07:26:15 AM 39.0344 -11.0025 74° East  Level FlightAware Approximate
Fri 07:27:15 AM 39.0709 -10.8424 74° East  Level FlightAware Approximate
Fri 07:28:15 AM 39.1072 -10.6822 74° East  Level FlightAware Approximate
Fri 07:29:15 AM 39.1432 -10.5218 74° East  Level FlightAware Approximate
Fri 07:30:15 AM 39.1791 -10.3613 74° East  Level FlightAware Approximate
Fri 07:31:15 AM 39.2147 -10.2006 74° East  Level FlightAware Approximate
Fri 07:32:15 AM 39.2501 -10.0398 74° East  Level FlightAware Approximate
Fri 07:33:15 AM 39.2853 -9.8787 74° East  Level FlightAware Approximate
Fri 07:34:15 AM 39.3202 -9.7175 74° East  Level FlightAware Approximate
Fri 07:35:15 AM 39.3550 -9.5562 74° East  Level FlightAware Approximate
Fri 07:36:15 AM 39.3895 -9.3947 75° East  Level FlightAware Approximate
Fri 07:37:15 AM 39.4238 -9.2330 75° East  Level FlightAware Approximate
Fri 07:38:15 AM 39.4578 -9.0712 75° East  Level FlightAware Approximate
Fri 07:39:15 AM 39.4917 -8.9092 75° East  Level FlightAware Approximate
Fri 07:40:15 AM 39.5253 -8.7471 75° East  Level FlightAware Approximate
Fri 07:41:15 AM 39.5587 -8.5848 75° East  Level FlightAware Approximate
Fri 07:42:15 AM 39.5918 -8.4223 75° East  Level FlightAware Approximate
Fri 07:43:15 AM 39.6248 -8.2597 75° East  Level FlightAware Approximate
Fri 07:44:15 AM 39.6575 -8.0969 75° East  Level FlightAware Approximate
Fri 07:45:15 AM 39.6900 -7.9340 76° East  Level FlightAware Approximate
Fri 07:46:15 AM 39.7222 -7.7709 76° East  Level FlightAware Approximate
Fri 07:47:15 AM 39.7542 -7.6077 76° East  Level FlightAware Approximate
Fri 07:48:15 AM 39.7860 -7.4443 76° East  Level FlightAware Approximate
Fri 07:49:15 AM 39.8176 -7.2808 76° East  Level FlightAware Approximate
Fri 07:50:15 AM 39.8489 -7.1172 76° East  Level FlightAware Approximate
Fri 07:51:15 AM 39.8801 -6.9533 76° East  Level FlightAware Approximate
Fri 07:52:15 AM 39.9109 -6.7894 76° East  Level FlightAware Approximate
Fri 07:53:15 AM 39.9416 -6.6252 76° East  Level FlightAware Approximate
Fri 07:54:15 AM 39.9720 -6.4610 76° East  Level FlightAware Approximate
Fri 07:55:15 AM 40.0022 -6.2966 77° East  Level FlightAware Approximate
Fri 07:56:15 AM 40.0321 -6.1320 77° East  Level FlightAware Approximate
Fri 07:57:15 AM 40.0618 -5.9673 111° Southeast  Level FlightAware Approximate
Fri 07:58:15 AM 40.0167 -5.8105 77° East  Level FlightAware Approximate
Fri 07:59:15 AM 40.0460 -5.6466 74° East  Level FlightAware Approximate
Fri 08:00:15 AM 40.0807 -5.4836 72° East  Level FlightAware Approximate
Fri 08:01:15 AM 40.1210 -5.3228 75° East  Level FlightAware Approximate
Fri 08:02:15 AM 40.1547 -5.1592 75° East  Level FlightAware Approximate
Fri 08:03:15 AM 40.1889 -4.9959 75° East  Level FlightAware Approximate
Fri 08:04:15 AM 40.2220 -4.8319 75° East  Level FlightAware Approximate
Fri 08:05:15 AM 40.2549 -4.6678 78° East  Level FlightAware Approximate
Fri 08:06:15 AM 40.2827 -4.5026 73° East  Level FlightAware Approximate
Fri 08:07:15 AM 40.3213 -4.3405 76° East  Level FlightAware Approximate
Fri 08:08:15 AM 40.3532 -4.1758 79° East  Level FlightAware Approximate
Fri 08:09:15 AM 40.3782 -4.0090 75° East  Level FlightAware Approximate
Fri 08:10:15 AM 40.4104 -3.8459 75° East  Level FlightAware Approximate
Fri 08:11:15 AM 40.4437 -3.6856 77° East  Level FlightAware Approximate
Fri 08:12:15 AM 40.4667 -3.5500 335° Northwest  Level FlightAware Approximate
Fri 08:13:15 AM 40.5837 -3.6231 155° Southeast  Level Estimated
Fri 08:14:15 AM 40.4667 -3.5500 335° Northwest  Level FlightAware Approximate
Fri 08:15:15 AM 40.5837 -3.6231 155° Southeast  Level Estimated
Fri 08:16:15 AM 40.4667 -3.5500 335° Northwest  Level FlightAware Approximate
Fri 08:17:15 AM 40.5837 -3.6231 155° Southeast  Level Estimated
Fri 08:18:15 AM 40.4667 -3.5500 335° Northwest  Level FlightAware Approximate
Fri 08:19:15 AM 40.5837 -3.6231 155° Southeast  Level Estimated
Fri 08:20:15 AM 40.4667 -3.5500 335° Northwest  Level FlightAware Approximate
Fri 08:21:15 AM 40.5837 -3.6231 155° Southeast  Level Estimated
Fri 08:22:15 AM 40.4667 -3.5500 335° Northwest  Level FlightAware Approximate
Fri 08:23:15 AM 40.5837 -3.6231 155° Southeast  Level Estimated
Fri 08:24:15 AM 40.4667 -3.5500 335° Northwest  Level FlightAware Approximate
Fri 08:25:15 AM 40.5837 -3.6231 335° Northwest  Level Estimated

Login

Don't have an account? Register now (free) for customized features, flight alerts, and more!